CheckWX is a tool to help pilots better visualize weather data.  It is not intended as a substitute for an official pre-flight weather briefing.

12:23:01 UTC

KFIT METAR
Fitchburg Municipal Airport
Fitchburg, Massachusetts, USA
Current

22 mins ago

KFIT 181201Z AUTO 01003KT 1SM -SN BR VV019 M04/M06 A2986 RMK AO2 PRESFR P0000 T10391056
Observed
Feb-18 @ 12:01 UTC
Wind
  • 010° at 3 KTS
Visibility
1 SM
Flight Rules
LIFR
Conditions
Light Snow, Mist
Cloud Levels
  • Vertical visibility at 1,900' AGL
Temperature
-4°C / 25°F
Dewpoint
-6°C / 21°F
Humidity
86%
Altimeter
29.86" Hg
Pressure
1011.22 hPa
Current Rain
0.01"
Previous

31 mins ago

KFIT 181152Z AUTO 00000KT 1 1/4SM -SN BR OVC019 M04/M05 A2988 RMK AO2 SLP123 P0001 60009 70010 T10391050 11039 21039 55008
Observed
Feb-18 @ 11:52 UTC
Visibility
1 1/4 SM
Flight Rules
IFR
Conditions
Light Snow, Mist
Cloud Levels
  • Overcast at 1,900' AGL
Temperature
-4°C / 25°F
Dewpoint
-5°C / 23°F
Humidity
93%
Altimeter
29.88" Hg
Pressure
1012.3 hPa
Current Rain
0.01"
Previous

40 mins ago

KFIT 181143Z AUTO 00000KT 1 1/2SM -SN BR OVC021 M04/M06 A2989 RMK AO2 P0001 T10391056
Observed
Feb-18 @ 11:43 UTC
Visibility
1 1/2 SM
Flight Rules
IFR
Conditions
Light Snow, Mist
Cloud Levels
  • Overcast at 2,100' AGL
Temperature
-4°C / 25°F
Dewpoint
-6°C / 21°F
Humidity
86%
Altimeter
29.89" Hg
Pressure
1012.22 hPa
Current Rain
0.01"